• Join FlightAware (Why Join?)
  • Login
  • US Flag 
 
09:53PM EST


 

Airport Tracker/Info


-or-


 

Live Flight TrackerFlight Track Log ✈ N830W ✈ 20-Nov-2013 ✈ KGFL - KROC

Flight Track Log - Related Links

Times and Time Zones

All times are in EST time to prevent confusion due to time zone crossing. See the N830W flight status page for this flight to view local times or setup timezone preferences in your user account.

Time Position Orientation Groundspeed Altitude Reporting Facility
EST Latitude Longitude Course Direction KTS MPH feet Rate Location/Type
10:29AM 43.3411 -73.7603 256° West 105 121 4,600  Level Boston Center
10:30AM 43.3333 -73.8017 256° West 118 136 4,800  Climbing Boston Center
10:31AM 43.3244 -73.8517 256° West 146 168 4,700 -120 Descending Boston Center
10:32AM 43.3197 -73.9031 263° West 138 159 4,600  Descending Boston Center
10:32AM 43.3203 -73.9092 277° West 139 160 4,700 180 Climbing Boston Center
10:33AM 43.3181 -73.9522 266° West 131 151 4,800 180 Climbing Boston Center
10:33AM 43.3183 -73.9556 277° West 127 146 4,900 180 Climbing Boston Center
10:34AM 43.3158 -74.0044 266° West 134 154 5,000  Climbing Boston Center
10:34AM 43.3156 -74.0069 261° West 133 153 4,900  Descending Boston Center
10:35AM 43.3125 -74.0564 265° West 138 159 5,000  Climbing Boston Center
10:35AM 43.3133 -74.0592 292° West 136 157 4,900 60 Descending Boston Center
10:36AM 43.3094 -74.1083 264° West 137 158 5,100 60 Climbing Boston Center
10:36AM 43.3097 -74.1111 278° West 137 158 5,000  Descending Boston Center
10:37AM 43.3075 -74.1547 266° West 124 143 5,100  Climbing Boston Center
10:37AM 43.3058 -74.1656 258° West 133 153 5,000 -120 Descending Boston Center
10:38AM 43.2989 -74.2194 260° West 142 163 5,000 -60 Level Boston Center
10:39AM 43.2911 -74.2714 258° West 141 162 4,900 -120 Descending Boston Center
10:39AM 43.2908 -74.2753 264° West 147 169 4,900  Level Boston Center
10:40AM 43.2889 -74.3231 267° West 138 159 4,900  Level Boston Center
10:40AM 43.2897 -74.3244 309° West 133 153 4,900  Level Boston Center
10:41AM 43.2928 -74.3750 275° West 135 155 4,900  Level Boston Center
10:42AM 43.2886 -74.4292 264° West 137 158 4,900  Level Boston Center
10:43AM 43.2869 -74.4797 267° West 136 157 5,000  Climbing Boston Center
10:44AM 43.2839 -74.5303 265° West 135 155 5,000 -120 Level Boston Center
10:44AM 43.2819 -74.5408 256° West 135 155 4,900  Descending Boston Center
10:45AM 43.2778 -74.5831 262° West 137 158 5,000  Climbing Boston Center
10:45AM 43.2758 -74.5944 257° West 138 159 4,900  Descending Boston Center
10:46AM 43.2708 -74.6353 260° West 138 159 5,000  Climbing Boston Center
10:46AM 43.2703 -74.6453 266° West 139 160 4,900 60 Descending Boston Center
10:47AM 43.2689 -74.6872 267° West 138 159 5,100 60 Climbing Boston Center
10:47AM 43.2683 -74.6972 266° West 137 158 5,000  Descending Boston Center
10:48AM 43.2689 -74.7386 271° West 137 158 5,100  Climbing Boston Center
10:48AM 43.2689 -74.7500 270° West 136 157 5,000 -180 Descending Boston Center
10:49AM 43.2658 -74.8103 266° West 140 161 4,900 -60 Descending Boston Center
10:50AM 43.2639 -74.8622 267° West 139 160 4,900  Level Boston Center
10:51AM 43.2614 -74.9061 266° West 138 159 5,000  Climbing Boston Center
10:51AM 43.2600 -74.9136 256° West 137 158 4,900 -120 Descending Boston Center
10:52AM 43.2581 -74.9539 266° West 137 158 4,900 60 Level Boston Center
10:52AM 43.2581 -74.9583 270° West 138 159 5,000  Climbing Boston Center
10:53AM 43.2533 -75.0106 263° West 139 160 4,900  Descending Boston Center
10:53AM 43.2539 -75.0108 340° North 138 159 5,000  Climbing Boston Center
10:54AM 43.2569 -75.0628 275° West 137 158 4,900 -240 Descending Boston Center
10:54AM 43.2567 -75.0700 267° West 136 157 4,800  Descending Boston Center
10:55AM 43.2558 -75.1150 269° West 137 158 4,900  Climbing Boston Center
10:55AM 43.2547 -75.1219 258° West 136 157 4,800 -120 Descending Boston Center
10:56AM 43.2528 -75.1678 267° West 138 159 4,800 -60 Level Boston Center
10:57AM 43.2517 -75.2203 268° West 139 160 4,700  Descending Boston Center
10:57AM 43.2517 -75.2217 270° West 138 159 4,800 60 Climbing Boston Center
10:58AM 43.2481 -75.2742 265° West 138 159 4,800 -60 Level Boston Center
10:59AM 43.2444 -75.3319 265° West 138 159 4,700  Descending Boston Center
10:59AM 43.2450 -75.3275 80° East 138 159 4,800  Climbing Boston Center
11:00AM 43.2400 -75.3861 263° West 140 161 4,700  Descending Boston Center
11:00AM 43.2414 -75.3800 73° East 138 159 4,800 60 Climbing Boston Center
11:01AM 43.2397 -75.4331 268° West 139 160 4,800 -60 Level Boston Center
11:02AM 43.2383 -75.4878 268° West 139 160 4,700  Descending Boston Center
11:02AM 43.2392 -75.4861 56° Northeast 139 160 4,800 60 Climbing Boston Center
11:03AM 43.2400 -75.5500 271° West 140 161 4,800 -60 Level Boston Center
11:04AM 43.2369 -75.6011 265° West 138 159 4,700  Descending Boston Center
11:04AM 43.2383 -75.6025 324° Northwest 139 160 4,800 60 Climbing Boston Center
11:05AM 43.2353 -75.6550 265° West 138 159 4,800 -60 Level Boston Center
11:06AM 43.2306 -75.7044 263° West 136 157 4,700  Descending Boston Center
11:06AM 43.2325 -75.7061 328° Northwest 137 158 4,800 -120 Climbing Boston Center
11:07AM 43.2283 -75.7564 264° West 138 159 4,600 -120 Descending Boston Center
11:08AM 43.2292 -75.7586 297° West 137 158 4,700 60 Climbing Boston Center
11:09AM 43.2272 -75.8117 267° West 138 159 4,700 -120 Level Boston Center
11:09AM 43.2250 -75.8664 267° West 139 160 4,500 -120 Descending Boston Center
11:10AM 43.2258 -75.8633 69° East 138 159 4,600  Climbing Boston Center
11:10AM 43.2247 -75.9189 268° West 139 160 4,500  Descending Boston Center
11:11AM 43.2253 -75.9161 75° East 138 159 4,600  Climbing Boston Center
11:11AM 43.2236 -75.9653 267° West 137 158 4,500 -120 Descending Boston Center
11:12AM 43.2239 -75.9683 277° West 138 159 4,500  Level Boston Center
11:12AM 43.2247 -76.0211 271° West 138 159 4,500  Level Boston Center
11:13AM 43.2247 -76.0194 90° East 136 157 4,500  Level Boston Center
11:14AM 43.2256 -76.0825 271° West 137 158 4,500  Level Boston Center
11:15AM 43.2203 -76.1358 262° West 139 160 4,500  Level Boston Center
11:16AM 43.2128 -76.1811 257° West 139 160 4,500  Level Boston Center
11:16AM 43.2142 -76.1875 287° West 139 160 4,500  Level Boston Center
11:17AM 43.2094 -76.2403 263° West 139 160 4,500  Level Boston Center
11:18AM 43.2033 -76.2864 260° West 138 159 4,500  Level Boston Center
11:18AM 43.2033 -76.2919 270° West 139 160 4,500  Level Boston Center
11:18AM 43.2014 -76.3356 267° West 139 160 4,500  Level Boston Center
11:19AM 43.2000 -76.3439 257° West 138 159 4,500  Level Boston Center
11:19AM 43.1978 -76.3753 264° West 138 159 4,500  Level Cleveland Center
11:20AM 43.1931 -76.4275 263° West 138 159 4,500  Level Cleveland Center
11:21AM 43.1889 -76.4792 264° West 138 159 4,500  Level Cleveland Center
11:22AM 43.1822 -76.5306 260° West 138 159 4,500  Level Cleveland Center
11:23AM 43.1758 -76.5825 260° West 138 159 4,600  Climbing Cleveland Center
11:24AM 43.1686 -76.6444 261° West 138 159 4,500 -60 Descending Cleveland Center
11:25AM 43.1658 -76.6964 266° West 137 158 4,500  Level Cleveland Center
11:26AM 43.1631 -76.7486 266° West 138 159 4,500  Level Cleveland Center
11:28AM 43.1608 -76.8014 267° West 138 159 4,500  Level Cleveland Center
11:29AM 43.1581 -76.8544 266° West 139 160 4,500  Level Cleveland Center
11:29AM 43.1542 -76.9033 264° West 140 161 4,500  Level Cleveland Center
11:30AM 43.1550 -76.9069 288° West 139 160 4,500  Level Cleveland Center
11:30AM 43.1544 -76.9497 269° West 141 162 4,500  Level Cleveland Center
11:31AM 43.1531 -76.9600 260° West 139 160 4,500  Level Cleveland Center
11:31AM 43.1519 -76.9983 268° West 140 161 4,500  Level Cleveland Center
11:32AM 43.1522 -77.0244 271° West 140 161 4,500  Level Cleveland Center
11:32AM 43.1492 -77.0497 261° West 139 160 4,500  Level Cleveland Center
11:33AM 43.1511 -77.0767 276° West 140 161 4,500 -120 Level Cleveland Center
11:33AM 43.1478 -77.1072 262° West 139 160 4,400 -240 Descending Cleveland Center
11:34AM 43.1483 -77.1300 272° West 140 161 4,300 -300 Descending Cleveland Center
11:34AM 43.1464 -77.1619 265° West 145 167 4,100 -420 Descending Cleveland Center
11:35AM 43.1481 -77.1853 276° West 143 165 3,900 -480 Descending Cleveland Center
11:35AM 43.1456 -77.2139 263° West 144 166 3,700 -420 Descending Cleveland Center
11:36AM 43.1486 -77.2397 279° West 143 165 3,500 -420 Descending Cleveland Center
11:36AM 43.1469 -77.2664 265° West 141 162 3,300 -420 Descending Cleveland Center
11:37AM 43.1472 -77.2928 271° West 142 163 3,100 -300 Descending Cleveland Center
11:37AM 43.1456 -77.3211 265° West 140 161 3,000 -300 Descending Cleveland Center
11:38AM 43.1478 -77.3450 277° West 140 161 2,800 -240 Descending Cleveland Center
11:38AM 43.1456 -77.3672 262° West 136 157 2,800 -240 Level Cleveland Center
11:39AM 43.1481 -77.4050 275° West 135 155 2,600 -240 Descending Cleveland Center
11:39AM 43.1450 -77.4164 250° West 129 148 2,600 -120 Level Cleveland Center
11:40AM 43.1475 -77.4578 275° West 133 153 2,500 -240 Descending Cleveland Center
11:40AM 43.1444 -77.4656 242° Southwest 127 146 2,400 -180 Descending Cleveland Center
11:41AM 43.1422 -77.5114 266° West 122 140 2,300 -300 Descending Cleveland Center
11:42AM 43.1406 -77.5544 267° West 115 132 1,900 -420 Descending Cleveland Center
11:43AM 43.1397 -77.5889 268° West 87 100 1,500 -300 Descending Cleveland Center
11:44AM 43.1356 -77.6197 260° West 77 89 1,300 -300 Descending Cleveland Center
11:45AM 43.1253 -77.6461 242° Southwest 73 84 900 -420 Descending Cleveland Center